Aérodrome :
LOGIN :

S'inscrire | Disclaimer

   EN    FR    IT 

 










Légende :    VFR   VFR Marginal   IFR   IFR Intensif   IFR Très Intensif
Visi : 
Plafond : 
>= 8 km
>= 3000ft
5 à 8 km
1000 à 3000 ft
1500m à 5 km
500 à 1000 ft
800 à 1500m
200 à 500 ft
< 800m
< 200 ft
Symboles :   Orages  Brouillard  Fortes neiges  Fortes précipitations  Vent > 20 kt
SIGMETs :   Divers  Orages  Givrage  Turbulence  Onde Orograph.  Cendres Volcan.







- Altitude de l'aérodrome : 257 ft
- Code IATA : MAN
- Voir les cartes d'approche


EGCC - Manchester

DERNIER METAR :
  • 201950Z AUTO 32002KT 9999 NCD 13/05 Q1025 NOSIG

METARs EXPIRÉS :
  • 201920Z AUTO 31006KT 9999 NCD 13/05 Q1025 NOSIG
  • 201850Z AUTO 31007KT 9999 NCD 14/05 Q1024 NOSIG
  • 201820Z AUTO 32008KT 9999 NCD 14/05 Q1024 NOSIG
  • 201750Z AUTO 31008KT 280V350 9999 NCD 15/04 Q1024
  • 201720Z AUTO 33007KT 300V360 9999 NCD 15/05 Q1024 NOSIG

TAF TAF EGCC
Valide du 20 à 18h jusqu'au 22 à 00h UTC


201654Z 2018/2124 VRB03KT CAVOK
TEMPO 2100/2108 7000
BECMG 2112/2115 16010KT
TEMPO 2116/2120 5000 TSRA BKN014CB
TEMPO 2120/2123 7000 SHRA
ATIS : +44 161 499 2324
Pas de NOTAMs connus pour ce terrain.



MET'MAP, la Météo Aéronautique d'un coup d'oeil ! - Copyright ORBIFLY Décembre 2007 - Disclaimer

ORBIFLY MET'MAP TEAM :

Programmation & Développement : Alexandra Zaïnal
Conception & Développement : Baudouin d'Aumeries
Co-Programmation & Développement : Marc-Olivier Méhu
Soutien technique & logistique : Manuel Goepfert

Contact : metmap@orbifly.com




SOURCES & CREDITS :

   NOAA